sensor_id;sensor_type;location;lat;lon;timestamp;temperature;humidity
67572;SHT31;54397;47.506;19.158;2023-07-09T00:01:44;21.08;67.61
67572;SHT31;54397;47.506;19.158;2023-07-09T00:05:12;21.06;67.78
67572;SHT31;54397;47.506;19.158;2023-07-09T00:08:36;20.99;67.93
67572;SHT31;54397;47.506;19.158;2023-07-09T00:12:00;20.89;68.39
67572;SHT31;54397;47.506;19.158;2023-07-09T00:15:25;20.84;68.34
67572;SHT31;54397;47.506;19.158;2023-07-09T00:18:47;20.58;68.68
67572;SHT31;54397;47.506;19.158;2023-07-09T00:22:18;20.57;69.00
67572;SHT31;54397;47.506;19.158;2023-07-09T00:25:40;20.61;68.70
67572;SHT31;54397;47.506;19.158;2023-07-09T00:29:09;20.68;68.32
67572;SHT31;54397;47.506;19.158;2023-07-09T00:32:32;20.57;68.68
67572;SHT31;54397;47.506;19.158;2023-07-09T00:36:13;20.51;68.83
67572;SHT31;54397;47.506;19.158;2023-07-09T00:39:38;20.47;68.72
67572;SHT31;54397;47.506;19.158;2023-07-09T00:43:13;20.43;68.90
67572;SHT31;54397;47.506;19.158;2023-07-09T00:50:10;20.39;68.97
67572;SHT31;54397;47.506;19.158;2023-07-09T00:53:33;20.23;69.49
67572;SHT31;54397;47.506;19.158;2023-07-09T00:56:54;20.10;69.81
67572;SHT31;54397;47.506;19.158;2023-07-09T01:00:19;20.02;69.61
67572;SHT31;54397;47.506;19.158;2023-07-09T01:03:48;19.90;70.19
67572;SHT31;54397;47.506;19.158;2023-07-09T01:07:10;19.86;70.40
67572;SHT31;54397;47.506;19.158;2023-07-09T01:10:32;19.92;70.21
67572;SHT31;54397;47.506;19.158;2023-07-09T01:13:56;19.76;70.77
67572;SHT31;54397;47.506;19.158;2023-07-09T01:17:21;19.81;70.70
67572;SHT31;54397;47.506;19.158;2023-07-09T01:20:42;19.82;70.69
67572;SHT31;54397;47.506;19.158;2023-07-09T01:24:46;19.89;70.32
67572;SHT31;54397;47.506;19.158;2023-07-09T01:27:57;19.87;70.18
67572;SHT31;54397;47.506;19.158;2023-07-09T01:31:22;19.78;70.32
67572;SHT31;54397;47.506;19.158;2023-07-09T01:34:46;19.82;70.31
67572;SHT31;54397;47.506;19.158;2023-07-09T01:38:09;19.79;70.31
67572;SHT31;54397;47.506;19.158;2023-07-09T01:41:34;19.78;70.38
67572;SHT31;54397;47.506;19.158;2023-07-09T01:44:58;19.71;70.74
67572;SHT31;54397;47.506;19.158;2023-07-09T01:48:26;19.76;70.80
67572;SHT31;54397;47.506;19.158;2023-07-09T01:51:47;19.68;71.32
67572;SHT31;54397;47.506;19.158;2023-07-09T01:55:12;19.72;71.08
67572;SHT31;54397;47.506;19.158;2023-07-09T01:58:40;19.61;71.56
67572;SHT31;54397;47.506;19.158;2023-07-09T02:02:08;19.62;71.73
67572;SHT31;54397;47.506;19.158;2023-07-09T02:05:33;19.68;71.51
67572;SHT31;54397;47.506;19.158;2023-07-09T02:08:54;19.72;71.11
67572;SHT31;54397;47.506;19.158;2023-07-09T02:12:17;19.68;70.98
67572;SHT31;54397;47.506;19.158;2023-07-09T02:15:39;19.65;71.34
67572;SHT31;54397;47.506;19.158;2023-07-09T02:19:08;19.54;71.34
67572;SHT31;54397;47.506;19.158;2023-07-09T02:22:29;19.45;71.43
67572;SHT31;54397;47.506;19.158;2023-07-09T02:25:51;19.43;71.63
67572;SHT31;54397;47.506;19.158;2023-07-09T02:29:15;19.24;72.24
67572;SHT31;54397;47.506;19.158;2023-07-09T02:32:37;19.32;72.27
67572;SHT31;54397;47.506;19.158;2023-07-09T02:35:58;19.30;72.10
67572;SHT31;54397;47.506;19.158;2023-07-09T02:39:24;19.21;71.91
67572;SHT31;54397;47.506;19.158;2023-07-09T02:42:48;19.21;72.28
67572;SHT31;54397;47.506;19.158;2023-07-09T02:46:12;19.17;72.37
67572;SHT31;54397;47.506;19.158;2023-07-09T02:49:34;19.21;72.19
67572;SHT31;54397;47.506;19.158;2023-07-09T02:52:55;19.24;71.95
67572;SHT31;54397;47.506;19.158;2023-07-09T02:56:20;19.23;72.21
67572;SHT31;54397;47.506;19.158;2023-07-09T02:59:46;19.32;71.82
67572;SHT31;54397;47.506;19.158;2023-07-09T03:03:11;19.28;71.92
67572;SHT31;54397;47.506;19.158;2023-07-09T03:06:33;19.26;71.68
67572;SHT31;54397;47.506;19.158;2023-07-09T03:09:54;19.20;71.99
67572;SHT31;54397;47.506;19.158;2023-07-09T03:13:16;19.20;72.08
67572;SHT31;54397;47.506;19.158;2023-07-09T03:16:41;19.30;71.88
67572;SHT31;54397;47.506;19.158;2023-07-09T03:20:05;19.10;71.99
67572;SHT31;54397;47.506;19.158;2023-07-09T03:23:29;19.04;72.13
67572;SHT31;54397;47.506;19.158;2023-07-09T03:26:53;18.79;72.81
67572;SHT31;54397;47.506;19.158;2023-07-09T03:30:15;18.79;73.11
67572;SHT31;54397;47.506;19.158;2023-07-09T03:33:37;18.77;72.97
67572;SHT31;54397;47.506;19.158;2023-07-09T03:36:59;18.83;72.95
67572;SHT31;54397;47.506;19.158;2023-07-09T03:40:23;18.85;72.86
67572;SHT31;54397;47.506;19.158;2023-07-09T03:43:45;18.95;72.54
67572;SHT31;54397;47.506;19.158;2023-07-09T03:47:07;18.99;72.80
67572;SHT31;54397;47.506;19.158;2023-07-09T03:50:29;19.03;72.51
67572;SHT31;54397;47.506;19.158;2023-07-09T03:53:51;19.20;72.22
67572;SHT31;54397;47.506;19.158;2023-07-09T03:57:13;19.17;72.07
67572;SHT31;54397;47.506;19.158;2023-07-09T04:00:35;19.23;72.25
67572;SHT31;54397;47.506;19.158;2023-07-09T04:03:59;19.20;72.27
67572;SHT31;54397;47.506;19.158;2023-07-09T04:07:23;19.20;72.30
67572;SHT31;54397;47.506;19.158;2023-07-09T04:10:44;19.14;72.64
67572;SHT31;54397;47.506;19.158;2023-07-09T04:14:06;19.21;72.49
67572;SHT31;54397;47.506;19.158;2023-07-09T04:17:31;19.26;72.54
67572;SHT31;54397;47.506;19.158;2023-07-09T04:20:56;19.31;72.21
67572;SHT31;54397;47.506;19.158;2023-07-09T04:24:23;19.39;72.59
67572;SHT31;54397;47.506;19.158;2023-07-09T04:27:45;19.43;72.23
67572;SHT31;54397;47.506;19.158;2023-07-09T04:31:09;19.54;72.37
67572;SHT31;54397;47.506;19.158;2023-07-09T04:34:34;19.61;72.70
67572;SHT31;54397;47.506;19.158;2023-07-09T04:37:55;19.72;72.62
67572;SHT31;54397;47.506;19.158;2023-07-09T04:41:18;19.85;72.43
67572;SHT31;54397;47.506;19.158;2023-07-09T04:44:42;19.96;72.32
67572;SHT31;54397;47.506;19.158;2023-07-09T04:48:07;20.12;72.22
67572;SHT31;54397;47.506;19.158;2023-07-09T04:51:29;20.23;72.24
67572;SHT31;54397;47.506;19.158;2023-07-09T04:54:51;20.29;72.17
67572;SHT31;54397;47.506;19.158;2023-07-09T04:58:12;20.37;72.07
67572;SHT31;54397;47.506;19.158;2023-07-09T05:01:34;20.55;71.65
67572;SHT31;54397;47.506;19.158;2023-07-09T05:04:56;20.71;71.22
67572;SHT31;54397;47.506;19.158;2023-07-09T05:08:20;20.92;70.81
67572;SHT31;54397;47.506;19.158;2023-07-09T05:11:43;21.15;70.71
67572;SHT31;54397;47.506;19.158;2023-07-09T05:15:08;21.43;69.92
67572;SHT31;54397;47.506;19.158;2023-07-09T05:18:30;21.71;69.37
67572;SHT31;54397;47.506;19.158;2023-07-09T05:21:52;22.05;66.15
67572;SHT31;54397;47.506;19.158;2023-07-09T05:25:13;22.38;65.09
67572;SHT31;54397;47.506;19.158;2023-07-09T05:28:38;22.53;62.68
67572;SHT31;54397;47.506;19.158;2023-07-09T05:31:59;22.77;62.03
67572;SHT31;54397;47.506;19.158;2023-07-09T05:35:24;22.94;62.05
67572;SHT31;54397;47.506;19.158;2023-07-09T05:38:46;23.19;61.13
67572;SHT31;54397;47.506;19.158;2023-07-09T05:42:11;23.42;59.96
67572;SHT31;54397;47.506;19.158;2023-07-09T05:45:33;23.32;59.44
67572;SHT31;54397;47.506;19.158;2023-07-09T05:48:54;23.53;59.09
67572;SHT31;54397;47.506;19.158;2023-07-09T05:52:21;23.84;60.06
67572;SHT31;54397;47.506;19.158;2023-07-09T05:55:43;24.14;58.97
67572;SHT31;54397;47.506;19.158;2023-07-09T05:59:05;24.10;57.67
67572;SHT31;54397;47.506;19.158;2023-07-09T06:02:27;24.27;58.30
67572;SHT31;54397;47.506;19.158;2023-07-09T06:05:51;24.30;57.61
67572;SHT31;54397;47.506;19.158;2023-07-09T06:09:13;24.48;57.52
67572;SHT31;54397;47.506;19.158;2023-07-09T06:12:36;24.76;56.53
67572;SHT31;54397;47.506;19.158;2023-07-09T06:16:02;25.10;55.40
67572;SHT31;54397;47.506;19.158;2023-07-09T06:19:24;25.06;55.00
67572;SHT31;54397;47.506;19.158;2023-07-09T06:22:46;25.30;55.33
67572;SHT31;54397;47.506;19.158;2023-07-09T06:26:07;25.71;55.02
67572;SHT31;54397;47.506;19.158;2023-07-09T06:29:31;26.06;54.63
67572;SHT31;54397;47.506;19.158;2023-07-09T06:32:53;26.39;54.45
67572;SHT31;54397;47.506;19.158;2023-07-09T06:36:15;26.65;53.37
67572;SHT31;54397;47.506;19.158;2023-07-09T06:39:39;26.98;52.65
67572;SHT31;54397;47.506;19.158;2023-07-09T06:43:03;27.01;50.29
67572;SHT31;54397;47.506;19.158;2023-07-09T06:46:27;26.87;49.59
67572;SHT31;54397;47.506;19.158;2023-07-09T06:49:51;26.98;50.09
67572;SHT31;54397;47.506;19.158;2023-07-09T06:53:12;27.33;50.16
67572;SHT31;54397;47.506;19.158;2023-07-09T06:56:36;27.29;48.16
67572;SHT31;54397;47.506;19.158;2023-07-09T06:59:58;27.26;48.26
67572;SHT31;54397;47.506;19.158;2023-07-09T07:03:21;27.31;47.24
67572;SHT31;54397;47.506;19.158;2023-07-09T07:06:44;27.49;47.22
67572;SHT31;54397;47.506;19.158;2023-07-09T07:10:10;27.91;47.92
67572;SHT31;54397;47.506;19.158;2023-07-09T07:13:34;28.15;47.42
67572;SHT31;54397;47.506;19.158;2023-07-09T07:16:59;28.12;47.06
67572;SHT31;54397;47.506;19.158;2023-07-09T07:20:21;28.22;46.51
67572;SHT31;54397;47.506;19.158;2023-07-09T07:23:42;27.83;45.56
67572;SHT31;54397;47.506;19.158;2023-07-09T07:27:04;28.11;46.14
67572;SHT31;54397;47.506;19.158;2023-07-09T07:30:28;28.29;44.30
67572;SHT31;54397;47.506;19.158;2023-07-09T07:33:52;28.37;44.59
67572;SHT31;54397;47.506;19.158;2023-07-09T07:37:18;28.67;45.08
67572;SHT31;54397;47.506;19.158;2023-07-09T07:40:45;28.96;45.65
67572;SHT31;54397;47.506;19.158;2023-07-09T07:44:06;29.14;43.25
67572;SHT31;54397;47.506;19.158;2023-07-09T07:47:29;29.35;43.60
67572;SHT31;54397;47.506;19.158;2023-07-09T07:50:58;29.58;43.58
67572;SHT31;54397;47.506;19.158;2023-07-09T07:54:21;29.68;42.41
67572;SHT31;54397;47.506;19.158;2023-07-09T07:57:42;29.92;43.81
67572;SHT31;54397;47.506;19.158;2023-07-09T08:01:06;29.75;40.97
67572;SHT31;54397;47.506;19.158;2023-07-09T08:04:28;29.66;41.97
67572;SHT31;54397;47.506;19.158;2023-07-09T08:07:53;29.90;41.35
67572;SHT31;54397;47.506;19.158;2023-07-09T08:11:14;30.06;40.45
67572;SHT31;54397;47.506;19.158;2023-07-09T08:14:41;30.09;41.44
67572;SHT31;54397;47.506;19.158;2023-07-09T08:18:05;29.99;41.09
67572;SHT31;54397;47.506;19.158;2023-07-09T08:21:29;30.05;40.15
67572;SHT31;54397;47.506;19.158;2023-07-09T08:24:51;30.17;40.01
67572;SHT31;54397;47.506;19.158;2023-07-09T08:28:15;30.48;41.50
67572;SHT31;54397;47.506;19.158;2023-07-09T08:31:39;31.02;39.31
67572;SHT31;54397;47.506;19.158;2023-07-09T08:35:05;30.79;37.34
67572;SHT31;54397;47.506;19.158;2023-07-09T08:38:47;30.36;37.10
67572;SHT31;54397;47.506;19.158;2023-07-09T08:42:14;30.10;36.65
67572;SHT31;54397;47.506;19.158;2023-07-09T08:45:51;30.28;35.32
67572;SHT31;54397;47.506;19.158;2023-07-09T08:49:24;30.47;36.76
67572;SHT31;54397;47.506;19.158;2023-07-09T08:52:52;30.63;35.50
67572;SHT31;54397;47.506;19.158;2023-07-09T08:56:17;31.06;37.00
67572;SHT31;54397;47.506;19.158;2023-07-09T08:59:44;31.36;34.25
67572;SHT31;54397;47.506;19.158;2023-07-09T09:03:34;31.36;35.48
67572;SHT31;54397;47.506;19.158;2023-07-09T09:07:16;31.21;35.71
67572;SHT31;54397;47.506;19.158;2023-07-09T09:10:46;30.91;33.96
67572;SHT31;54397;47.506;19.158;2023-07-09T09:14:28;31.06;32.84
67572;SHT31;54397;47.506;19.158;2023-07-09T09:17:58;31.16;31.06
67572;SHT31;54397;47.506;19.158;2023-07-09T09:21:33;31.36;32.64
67572;SHT31;54397;47.506;19.158;2023-07-09T09:25:19;31.03;31.55
67572;SHT31;54397;47.506;19.158;2023-07-09T09:28:48;31.18;32.83
67572;SHT31;54397;47.506;19.158;2023-07-09T09:32:25;31.73;31.61
67572;SHT31;54397;47.506;19.158;2023-07-09T09:36:02;31.41;29.88
67572;SHT31;54397;47.506;19.158;2023-07-09T09:39:26;31.37;31.85
67572;SHT31;54397;47.506;19.158;2023-07-09T09:42:48;31.46;30.58
67572;SHT31;54397;47.506;19.158;2023-07-09T09:46:19;31.85;31.50
67572;SHT31;54397;47.506;19.158;2023-07-09T09:49:44;32.32;31.67
67572;SHT31;54397;47.506;19.158;2023-07-09T09:53:07;32.57;31.53
67572;SHT31;54397;47.506;19.158;2023-07-09T09:56:33;32.12;29.94
67572;SHT31;54397;47.506;19.158;2023-07-09T09:59:55;32.01;31.66
67572;SHT31;54397;47.506;19.158;2023-07-09T10:03:20;31.87;29.55
67572;SHT31;54397;47.506;19.158;2023-07-09T10:06:46;32.12;30.69
67572;SHT31;54397;47.506;19.158;2023-07-09T10:10:15;32.31;28.62
67572;SHT31;54397;47.506;19.158;2023-07-09T10:13:44;32.24;31.09
67572;SHT31;54397;47.506;19.158;2023-07-09T10:17:23;32.09;30.19
67572;SHT31;54397;47.506;19.158;2023-07-09T10:21:00;31.98;29.96
67572;SHT31;54397;47.506;19.158;2023-07-09T10:31:46;32.19;29.49
67572;SHT31;54397;47.506;19.158;2023-07-09T10:39:07;32.62;30.99
67572;SHT31;54397;47.506;19.158;2023-07-09T10:42:53;32.97;27.62
67572;SHT31;54397;47.506;19.158;2023-07-09T10:46:25;32.09;30.55
67572;SHT31;54397;47.506;19.158;2023-07-09T10:49:51;32.31;31.70
67572;SHT31;54397;47.506;19.158;2023-07-09T10:53:41;32.01;29.43
67572;SHT31;54397;47.506;19.158;2023-07-09T10:57:30;32.35;29.57
67572;SHT31;54397;47.506;19.158;2023-07-09T11:00:52;32.32;29.23
67572;SHT31;54397;47.506;19.158;2023-07-09T11:08:04;32.70;28.25
67572;SHT31;54397;47.506;19.158;2023-07-09T11:11:41;32.69;29.52
67572;SHT31;54397;47.506;19.158;2023-07-09T11:15:15;32.70;28.71
67572;SHT31;54397;47.506;19.158;2023-07-09T11:18:37;32.63;28.93
67572;SHT31;54397;47.506;19.158;2023-07-09T11:22:04;32.90;30.19
67572;SHT31;54397;47.506;19.158;2023-07-09T11:26:22;33.35;29.98
67572;SHT31;54397;47.506;19.158;2023-07-09T11:29:22;33.44;28.07
67572;SHT31;54397;47.506;19.158;2023-07-09T11:32:46;32.91;28.76
67572;SHT31;54397;47.506;19.158;2023-07-09T11:36:14;32.63;28.64
67572;SHT31;54397;47.506;19.158;2023-07-09T11:42:59;32.31;28.20
67572;SHT31;54397;47.506;19.158;2023-07-09T11:46:24;32.15;28.67
67572;SHT31;54397;47.506;19.158;2023-07-09T11:53:38;31.80;29.11
67572;SHT31;54397;47.506;19.158;2023-07-09T11:57:07;32.15;30.92
67572;SHT31;54397;47.506;19.158;2023-07-09T12:00:46;32.39;30.97
67572;SHT31;54397;47.506;19.158;2023-07-09T12:04:14;32.52;29.28
67572;SHT31;54397;47.506;19.158;2023-07-09T12:07:36;32.53;29.57
67572;SHT31;54397;47.506;19.158;2023-07-09T12:10:58;32.35;29.13
67572;SHT31;54397;47.506;19.158;2023-07-09T12:14:22;32.14;28.90
67572;SHT31;54397;47.506;19.158;2023-07-09T12:18:15;32.05;30.88
67572;SHT31;54397;47.506;19.158;2023-07-09T12:21:42;32.01;31.05
67572;SHT31;54397;47.506;19.158;2023-07-09T12:25:19;32.15;30.42
67572;SHT31;54397;47.506;19.158;2023-07-09T12:28:41;32.28;29.52
67572;SHT31;54397;47.506;19.158;2023-07-09T12:32:12;32.43;30.30
67572;SHT31;54397;47.506;19.158;2023-07-09T12:35:36;32.59;30.81
67572;SHT31;54397;47.506;19.158;2023-07-09T12:39:03;32.94;30.72
67572;SHT31;54397;47.506;19.158;2023-07-09T12:42:33;32.74;30.00
67572;SHT31;54397;47.506;19.158;2023-07-09T12:45:59;33.04;30.48
67572;SHT31;54397;47.506;19.158;2023-07-09T12:49:27;32.91;28.89
67572;SHT31;54397;47.506;19.158;2023-07-09T12:52:51;33.00;30.42
67572;SHT31;54397;47.506;19.158;2023-07-09T12:56:18;33.04;28.99
67572;SHT31;54397;47.506;19.158;2023-07-09T12:59:41;33.03;28.70
67572;SHT31;54397;47.506;19.158;2023-07-09T13:03:03;33.20;30.31
67572;SHT31;54397;47.506;19.158;2023-07-09T13:06:35;33.01;30.26
67572;SHT31;54397;47.506;19.158;2023-07-09T13:10:05;33.01;27.77
67572;SHT31;54397;47.506;19.158;2023-07-09T13:13:27;32.63;28.50
67572;SHT31;54397;47.506;19.158;2023-07-09T13:16:49;32.59;28.66
67572;SHT31;54397;47.506;19.158;2023-07-09T13:20:11;32.69;28.57
67572;SHT31;54397;47.506;19.158;2023-07-09T13:23:33;32.91;28.13
67572;SHT31;54397;47.506;19.158;2023-07-09T13:26:55;33.06;26.94
67572;SHT31;54397;47.506;19.158;2023-07-09T13:30:20;33.15;28.12
67572;SHT31;54397;47.506;19.158;2023-07-09T13:33:43;33.08;28.98
67572;SHT31;54397;47.506;19.158;2023-07-09T13:37:11;32.86;28.64
67572;SHT31;54397;47.506;19.158;2023-07-09T13:40:36;32.45;28.76
67572;SHT31;54397;47.506;19.158;2023-07-09T13:43:58;32.52;29.66
67572;SHT31;54397;47.506;19.158;2023-07-09T13:47:20;32.08;28.72
67572;SHT31;54397;47.506;19.158;2023-07-09T13:50:43;31.82;30.36
67572;SHT31;54397;47.506;19.158;2023-07-09T13:54:16;32.12;30.32
67572;SHT31;54397;47.506;19.158;2023-07-09T13:57:42;32.45;29.59
67572;SHT31;54397;47.506;19.158;2023-07-09T14:01:15;32.46;29.37
67572;SHT31;54397;47.506;19.158;2023-07-09T14:04:38;31.99;29.91
67572;SHT31;54397;47.506;19.158;2023-07-09T14:08:04;31.99;31.33
67572;SHT31;54397;47.506;19.158;2023-07-09T14:11:26;32.09;31.42
67572;SHT31;54397;47.506;19.158;2023-07-09T14:14:50;32.32;29.97
67572;SHT31;54397;47.506;19.158;2023-07-09T14:18:17;32.46;30.00
67572;SHT31;54397;47.506;19.158;2023-07-09T14:21:39;32.53;30.23
67572;SHT31;54397;47.506;19.158;2023-07-09T14:25:03;32.43;29.93
67572;SHT31;54397;47.506;19.158;2023-07-09T14:28:25;31.67;30.06
67572;SHT31;54397;47.506;19.158;2023-07-09T14:31:53;31.69;31.34
67572;SHT31;54397;47.506;19.158;2023-07-09T14:35:19;31.89;30.53
67572;SHT31;54397;47.506;19.158;2023-07-09T14:38:41;32.02;30.81
67572;SHT31;54397;47.506;19.158;2023-07-09T14:42:13;32.09;30.38
67572;SHT31;54397;47.506;19.158;2023-07-09T14:45:37;32.02;30.03
67572;SHT31;54397;47.506;19.158;2023-07-09T14:49:01;32.16;30.66
67572;SHT31;54397;47.506;19.158;2023-07-09T14:52:23;32.15;30.73
67572;SHT31;54397;47.506;19.158;2023-07-09T14:55:45;31.94;30.23
67572;SHT31;54397;47.506;19.158;2023-07-09T14:59:06;31.84;30.82
67572;SHT31;54397;47.506;19.158;2023-07-09T15:05:56;31.69;31.45
67572;SHT31;54397;47.506;19.158;2023-07-09T15:09:23;31.57;31.53
67572;SHT31;54397;47.506;19.158;2023-07-09T15:12:47;31.63;31.92
67572;SHT31;54397;47.506;19.158;2023-07-09T15:16:09;31.63;31.74
67572;SHT31;54397;47.506;19.158;2023-07-09T15:19:36;31.61;30.86
67572;SHT31;54397;47.506;19.158;2023-07-09T15:22:59;31.64;31.39
67572;SHT31;54397;47.506;19.158;2023-07-09T15:26:23;31.57;31.40
67572;SHT31;54397;47.506;19.158;2023-07-09T15:29:45;31.57;32.09
67572;SHT31;54397;47.506;19.158;2023-07-09T15:33:14;31.63;32.72
67572;SHT31;54397;47.506;19.158;2023-07-09T15:36:38;31.59;32.25
67572;SHT31;54397;47.506;19.158;2023-07-09T15:40:00;31.67;31.55
67572;SHT31;54397;47.506;19.158;2023-07-09T15:43:22;31.69;31.94
67572;SHT31;54397;47.506;19.158;2023-07-09T15:46:53;31.69;33.14
67572;SHT31;54397;47.506;19.158;2023-07-09T15:50:21;31.70;32.12
67572;SHT31;54397;47.506;19.158;2023-07-09T15:53:46;31.66;31.97
67572;SHT31;54397;47.506;19.158;2023-07-09T15:57:13;31.66;32.00
67572;SHT31;54397;47.506;19.158;2023-07-09T16:00:46;31.61;31.95
67572;SHT31;54397;47.506;19.158;2023-07-09T16:04:11;31.59;32.48
67572;SHT31;54397;47.506;19.158;2023-07-09T16:07:33;31.47;31.01
67572;SHT31;54397;47.506;19.158;2023-07-09T16:10:57;31.33;31.81
67572;SHT31;54397;47.506;19.158;2023-07-09T16:14:26;31.25;32.02
67572;SHT31;54397;47.506;19.158;2023-07-09T16:17:51;31.15;32.25
67572;SHT31;54397;47.506;19.158;2023-07-09T16:24:48;31.13;32.70
67572;SHT31;54397;47.506;19.158;2023-07-09T16:28:14;31.08;32.42
67572;SHT31;54397;47.506;19.158;2023-07-09T16:31:39;31.05;32.85
67572;SHT31;54397;47.506;19.158;2023-07-09T16:35:00;30.98;33.13
67572;SHT31;54397;47.506;19.158;2023-07-09T16:38:30;30.91;33.62
67572;SHT31;54397;47.506;19.158;2023-07-09T16:41:57;30.91;33.69
67572;SHT31;54397;47.506;19.158;2023-07-09T16:45:21;30.94;32.62
67572;SHT31;54397;47.506;19.158;2023-07-09T16:48:43;30.89;32.58
67572;SHT31;54397;47.506;19.158;2023-07-09T16:52:16;30.79;32.81
67572;SHT31;54397;47.506;19.158;2023-07-09T16:55:40;30.69;33.86
67572;SHT31;54397;47.506;19.158;2023-07-09T16:59:02;30.65;34.02
67572;SHT31;54397;47.506;19.158;2023-07-09T17:02:28;30.61;33.92
67572;SHT31;54397;47.506;19.158;2023-07-09T17:05:50;30.61;33.60
67572;SHT31;54397;47.506;19.158;2023-07-09T17:09:12;30.53;33.18
67572;SHT31;54397;47.506;19.158;2023-07-09T17:12:36;30.54;33.28
67572;SHT31;54397;47.506;19.158;2023-07-09T17:16:03;30.48;33.97
67572;SHT31;54397;47.506;19.158;2023-07-09T17:19:25;30.37;34.79
67572;SHT31;54397;47.506;19.158;2023-07-09T17:22:49;30.41;33.64
67572;SHT31;54397;47.506;19.158;2023-07-09T17:26:11;30.47;33.76
67572;SHT31;54397;47.506;19.158;2023-07-09T17:29:35;30.36;34.06
67572;SHT31;54397;47.506;19.158;2023-07-09T17:32:59;30.21;34.46
67572;SHT31;54397;47.506;19.158;2023-07-09T17:36:20;30.23;34.06
67572;SHT31;54397;47.506;19.158;2023-07-09T17:39:46;30.09;34.79
67572;SHT31;54397;47.506;19.158;2023-07-09T17:43:19;30.00;34.35
67572;SHT31;54397;47.506;19.158;2023-07-09T17:46:41;30.05;34.06
67572;SHT31;54397;47.506;19.158;2023-07-09T17:50:12;30.06;34.23
67572;SHT31;54397;47.506;19.158;2023-07-09T17:53:35;29.89;35.36
67572;SHT31;54397;47.506;19.158;2023-07-09T17:56:57;29.82;35.28
67572;SHT31;54397;47.506;19.158;2023-07-09T18:00:24;29.92;34.71
67572;SHT31;54397;47.506;19.158;2023-07-09T18:03:52;29.75;34.43
67572;SHT31;54397;47.506;19.158;2023-07-09T18:07:23;29.68;35.25
67572;SHT31;54397;47.506;19.158;2023-07-09T18:10:46;29.59;35.83
67572;SHT31;54397;47.506;19.158;2023-07-09T18:17:41;29.41;36.50
67572;SHT31;54397;47.506;19.158;2023-07-09T18:21:07;29.31;38.36
67572;SHT31;54397;47.506;19.158;2023-07-09T18:24:32;29.18;38.42
67572;SHT31;54397;47.506;19.158;2023-07-09T18:27:57;29.10;38.84
67572;SHT31;54397;47.506;19.158;2023-07-09T18:31:21;28.97;39.02
67572;SHT31;54397;47.506;19.158;2023-07-09T18:34:47;28.94;37.96
67572;SHT31;54397;47.506;19.158;2023-07-09T18:38:10;28.76;38.20
67572;SHT31;54397;47.506;19.158;2023-07-09T18:41:34;28.77;38.26
67572;SHT31;54397;47.506;19.158;2023-07-09T18:44:56;28.67;38.31
67572;SHT31;54397;47.506;19.158;2023-07-09T18:48:22;28.48;40.07
67572;SHT31;54397;47.506;19.158;2023-07-09T18:51:45;28.38;40.87
67572;SHT31;54397;47.506;19.158;2023-07-09T18:55:19;28.29;41.02
67572;SHT31;54397;47.506;19.158;2023-07-09T18:58:43;28.24;41.35
67572;SHT31;54397;47.506;19.158;2023-07-09T19:02:23;28.22;41.20
67572;SHT31;54397;47.506;19.158;2023-07-09T19:05:48;28.15;42.49
67572;SHT31;54397;47.506;19.158;2023-07-09T19:09:23;28.10;42.92
67572;SHT31;54397;47.506;19.158;2023-07-09T19:12:47;28.04;42.99
67572;SHT31;54397;47.506;19.158;2023-07-09T19:16:35;27.97;42.26
67572;SHT31;54397;47.506;19.158;2023-07-09T19:20:00;27.87;43.22
67572;SHT31;54397;47.506;19.158;2023-07-09T19:23:22;27.80;43.79
67572;SHT31;54397;47.506;19.158;2023-07-09T19:26:44;27.71;43.49
67572;SHT31;54397;47.506;19.158;2023-07-09T19:30:06;27.66;43.82
67572;SHT31;54397;47.506;19.158;2023-07-09T19:33:41;27.66;43.65
67572;SHT31;54397;47.506;19.158;2023-07-09T19:37:15;27.54;44.23
67572;SHT31;54397;47.506;19.158;2023-07-09T19:40:37;27.41;45.10
67572;SHT31;54397;47.506;19.158;2023-07-09T19:44:00;27.33;44.96
67572;SHT31;54397;47.506;19.158;2023-07-09T19:47:26;27.25;45.32
67572;SHT31;54397;47.506;19.158;2023-07-09T19:50:49;27.14;45.85
67572;SHT31;54397;47.506;19.158;2023-07-09T19:54:16;27.01;46.24
67572;SHT31;54397;47.506;19.158;2023-07-09T19:57:38;26.90;47.08
67572;SHT31;54397;47.506;19.158;2023-07-09T20:01:01;26.80;47.39
67572;SHT31;54397;47.506;19.158;2023-07-09T20:04:23;26.68;47.89
67572;SHT31;54397;47.506;19.158;2023-07-09T20:07:50;26.61;48.11
67572;SHT31;54397;47.506;19.158;2023-07-09T20:11:16;26.56;48.07
67572;SHT31;54397;47.506;19.158;2023-07-09T20:14:40;26.40;48.30
67572;SHT31;54397;47.506;19.158;2023-07-09T20:18:05;26.30;48.75
67572;SHT31;54397;47.506;19.158;2023-07-09T20:21:39;26.23;49.11
67572;SHT31;54397;47.506;19.158;2023-07-09T20:25:00;26.13;49.49
67572;SHT31;54397;47.506;19.158;2023-07-09T20:28:28;26.06;50.16
67572;SHT31;54397;47.506;19.158;2023-07-09T20:31:52;26.02;49.80
67572;SHT31;54397;47.506;19.158;2023-07-09T20:35:19;25.95;49.85
67572;SHT31;54397;47.506;19.158;2023-07-09T20:38:41;25.85;50.93
67572;SHT31;54397;47.506;19.158;2023-07-09T20:42:04;25.77;51.03
67572;SHT31;54397;47.506;19.158;2023-07-09T20:45:28;25.70;51.93
67572;SHT31;54397;47.506;19.158;2023-07-09T20:48:52;25.55;51.83
67572;SHT31;54397;47.506;19.158;2023-07-09T20:52:14;25.54;52.64
67572;SHT31;54397;47.506;19.158;2023-07-09T20:55:36;25.43;52.89
67572;SHT31;54397;47.506;19.158;2023-07-09T20:58:57;25.55;54.63
67572;SHT31;54397;47.506;19.158;2023-07-09T21:02:22;25.58;54.11
67572;SHT31;54397;47.506;19.158;2023-07-09T21:05:50;25.61;53.84
67572;SHT31;54397;47.506;19.158;2023-07-09T21:09:19;25.57;54.01
67572;SHT31;54397;47.506;19.158;2023-07-09T21:12:44;25.51;54.06
67572;SHT31;54397;47.506;19.158;2023-07-09T21:16:17;25.00;55.46
67572;SHT31;54397;47.506;19.158;2023-07-09T21:19:39;24.89;55.98
67572;SHT31;54397;47.506;19.158;2023-07-09T21:23:15;24.68;56.22
67572;SHT31;54397;47.506;19.158;2023-07-09T21:26:37;24.67;56.34
67572;SHT31;54397;47.506;19.158;2023-07-09T21:30:02;24.58;57.18
67572;SHT31;54397;47.506;19.158;2023-07-09T21:33:27;24.49;57.29
67572;SHT31;54397;47.506;19.158;2023-07-09T21:36:49;24.45;57.02
67572;SHT31;54397;47.506;19.158;2023-07-09T21:40:34;24.47;57.04
67572;SHT31;54397;47.506;19.158;2023-07-09T21:43:56;24.45;57.28
67572;SHT31;54397;47.506;19.158;2023-07-09T21:47:18;24.28;57.44
67572;SHT31;54397;47.506;19.158;2023-07-09T21:50:40;24.13;57.18
67572;SHT31;54397;47.506;19.158;2023-07-09T21:54:30;24.03;57.94